Time;durP1;ratioP1;P1;durP2;ratioP2;P2;SDS_P1;SDS_P2;PMS_P1;PMS_P2;Temp;Humidity;BMP_temperature;BMP_pressure;BME280_temperature;BME280_humidity;BME280_pressure;Samples;Min_cycle;Max_cycle;Signal;HPM_P1;HPM_P2
2022/02/02 00:01:40;;;;;;;37.17;3.88;;;;;;;;;;5025490;28;20052;-67
2022/02/02 00:04:10;;;;;;;41.03;3.92;;;;;;;;;;5041017;28;20107;-69
2022/02/02 00:06:44;;;;;;;19.30;2.85;;;;;;;;;;5039581;28;20036;-64
2022/02/02 00:09:14;;;;;;;11.15;2.45;;;;;;;;;;5023994;28;20033;-69
2022/02/02 00:21:57;;;;;;;19.45;2.65;;;;;;;;;;5060065;28;20042;-68
2022/02/02 00:26:53;;;;;;;30.92;3.70;;;;;;;;;;5043323;28;20846;-66
2022/02/02 00:29:24;;;;;;;35.17;4.10;;;;;;;;;;5038742;28;20100;-68
2022/02/02 00:32:01;;;;;;;20.88;4.03;;;;;;;;;;5043103;28;20926;-68
2022/02/02 00:34:30;;;;;;;22.27;3.05;;;;;;;;;;5021241;28;20032;-70
2022/02/02 00:37:08;;;;;;;23.45;4.18;;;;;;;;;;5038241;28;20032;-68
2022/02/02 00:39:34;;;;;;;14.68;2.45;;;;;;;;;;5039704;28;20024;-70
2022/02/02 00:42:04;;;;;;;21.17;2.33;;;;;;;;;;5042335;28;20482;-68
2022/02/02 00:44:29;;;;;;;28.20;4.40;;;;;;;;;;5039278;28;20037;-69
2022/02/02 00:46:57;;;;;;;24.20;3.13;;;;;;;;;;5040121;28;20388;-69
2022/02/02 00:49:27;;;;;;;28.30;4.22;;;;;;;;;;5038548;28;20456;-67
2022/02/02 00:51:58;;;;;;;29.85;4.32;;;;;;;;;;5040561;28;20171;-67
2022/02/02 00:54:28;;;;;;;21.83;3.55;;;;;;;;;;5037384;28;20047;-67
2022/02/02 00:56:58;;;;;;;27.08;3.67;;;;;;;;;;5043703;28;20021;-67
2022/02/02 00:59:26;;;;;;;36.13;4.15;;;;;;;;;;5040985;28;22015;-64
2022/02/02 01:01:57;;;;;;;34.97;4.88;;;;;;;;;;5036135;28;20579;-64
2022/02/02 01:04:23;;;;;;;32.17;3.58;;;;;;;;;;5034864;28;20033;-65
2022/02/02 01:07:04;;;;;;;28.17;3.38;;;;;;;;;;5040445;28;20638;-66
2022/02/02 01:20:49;;;;;;;13.18;3.13;;;;;;;;;;5032711;28;20084;-65
2022/02/02 01:28:18;;;;;;;23.10;2.88;;;;;;;;;;5037619;28;20056;-67
2022/02/02 01:30:48;;;;;;;40.28;2.75;;;;;;;;;;5023949;28;20033;-68
2022/02/02 01:33:14;;;;;;;20.27;2.85;;;;;;;;;;5042029;28;20043;-69
2022/02/02 01:35:43;;;;;;;34.80;4.00;;;;;;;;;;5026857;28;20040;-67
2022/02/02 01:38:09;;;;;;;22.60;2.72;;;;;;;;;;5042511;28;20044;-68
2022/02/02 01:40:42;;;;;;;16.33;2.38;;;;;;;;;;5042195;28;20029;-66
2022/02/02 01:43:16;;;;;;;21.38;2.67;;;;;;;;;;5025337;28;20039;-65
2022/02/02 01:45:47;;;;;;;32.15;2.95;;;;;;;;;;5021813;28;20039;-67
2022/02/02 01:56:05;;;;;;;34.10;3.33;;;;;;;;;;5042339;28;20110;-66
2022/02/02 02:01:08;;;;;;;18.45;2.88;;;;;;;;;;5042252;28;20048;-68
2022/02/02 02:03:37;;;;;;;18.80;2.50;;;;;;;;;;5041789;28;20823;-64
2022/02/02 02:06:05;;;;;;;34.45;4.20;;;;;;;;;;5042123;28;20039;-64
2022/02/02 02:08:35;;;;;;;37.10;3.45;;;;;;;;;;5063330;28;20039;-65
2022/02/02 02:11:05;;;;;;;21.83;3.47;;;;;;;;;;5026401;28;20129;-65
2022/02/02 02:14:03;;;;;;;31.92;4.15;;;;;;;;;;5021992;28;20028;-64
2022/02/02 02:16:26;;;;;;;28.15;3.33;;;;;;;;;;5044042;28;20040;-65
2022/02/02 02:18:53;;;;;;;22.50;3.33;;;;;;;;;;5026151;28;20037;-64
2022/02/02 02:21:18;;;;;;;36.38;4.75;;;;;;;;;;5042219;28;20058;-65
2022/02/02 02:23:46;;;;;;;28.15;4.00;;;;;;;;;;5026797;28;20024;-67
2022/02/02 02:26:19;;;;;;;28.13;3.22;;;;;;;;;;5042377;28;20033;-65
2022/02/02 02:29:02;;;;;;;25.92;4.00;;;;;;;;;;5043568;28;20073;-65
2022/02/02 02:31:43;;;;;;;38.03;3.90;;;;;;;;;;5045071;28;20743;-69
2022/02/02 02:56:07;;;;;;;46.38;4.32;;;;;;;;;;5039556;28;20039;-70
2022/02/02 02:58:47;;;;;;;9.63;1.77;;;;;;;;;;5028598;28;20036;-68
2022/02/02 03:01:30;;;;;;;17.92;2.78;;;;;;;;;;5042150;28;20053;-63
2022/02/02 04:04:24;;;;;;;30.37;4.93;;;;;;;;;;5039220;28;20064;-66
2022/02/02 04:09:23;;;;;;;31.58;4.53;;;;;;;;;;5039316;28;20037;-66
2022/02/02 04:12:06;;;;;;;32.33;6.55;;;;;;;;;;5043746;28;20059;-66
2022/02/02 04:17:46;;;;;;;49.40;4.95;;;;;;;;;;5040844;28;20075;-73
2022/02/02 04:52:00;;;;;;;30.27;4.03;;;;;;;;;;5038117;28;20060;-68
2022/02/02 05:16:00;;;;;;;35.50;3.40;;;;;;;;;;5024769;28;20131;-73
2022/02/02 05:45:31;;;;;;;37.08;4.47;;;;;;;;;;5047324;28;20468;-72
2022/02/02 05:53:23;;;;;;;46.90;3.57;;;;;;;;;;5042509;28;20024;-70
2022/02/02 05:55:51;;;;;;;47.90;4.72;;;;;;;;;;5030311;28;20703;-67
2022/02/02 05:58:19;;;;;;;25.17;4.38;;;;;;;;;;5046393;28;20047;-72
2022/02/02 06:00:45;;;;;;;29.40;3.78;;;;;;;;;;5046086;28;20101;-67
2022/02/02 06:03:14;;;;;;;41.28;4.43;;;;;;;;;;5043461;28;20108;-68
2022/02/02 06:05:45;;;;;;;29.25;4.18;;;;;;;;;;5042438;28;20070;-67
2022/02/02 06:08:12;;;;;;;33.60;4.10;;;;;;;;;;5041050;28;20025;-71
2022/02/02 06:10:41;;;;;;;32.28;4.03;;;;;;;;;;5042006;28;20041;-67
2022/02/02 06:13:06;;;;;;;30.60;5.72;;;;;;;;;;5043510;28;20657;-68
2022/02/02 06:15:33;;;;;;;34.33;5.40;;;;;;;;;;5044689;28;20047;-71
2022/02/02 06:18:03;;;;;;;26.92;3.78;;;;;;;;;;5044707;28;20581;-75
2022/02/02 06:20:33;;;;;;;39.50;3.58;;;;;;;;;;5044352;28;20040;-72
2022/02/02 06:23:11;;;;;;;22.33;3.25;;;;;;;;;;5042904;28;20028;-68
2022/02/02 06:25:45;;;;;;;29.73;3.97;;;;;;;;;;5047712;28;20036;-67
2022/02/02 06:28:13;;;;;;;29.83;3.33;;;;;;;;;;5047208;28;20062;-69
2022/02/02 06:30:38;;;;;;;24.45;4.20;;;;;;;;;;5027193;28;20032;-72
2022/02/02 06:33:04;;;;;;;23.92;3.60;;;;;;;;;;5042533;28;20024;-67
2022/02/02 06:35:33;;;;;;;27.65;3.38;;;;;;;;;;5029165;28;20664;-69
2022/02/02 06:37:58;;;;;;;22.60;4.65;;;;;;;;;;5027424;28;20123;-70
2022/02/02 06:40:26;;;;;;;30.02;3.72;;;;;;;;;;5044152;28;20037;-66
2022/02/02 06:42:54;;;;;;;41.08;4.10;;;;;;;;;;5045004;28;20055;-68
2022/02/02 06:45:19;;;;;;;39.58;3.67;;;;;;;;;;5045052;28;20055;-71
2022/02/02 06:47:49;;;;;;;30.85;3.85;;;;;;;;;;5044335;28;20144;-68
2022/02/02 06:50:29;;;;;;;37.65;4.43;;;;;;;;;;5045389;28;20032;-72
2022/02/02 06:56:06;;;;;;;20.75;3.42;;;;;;;;;;5045490;28;20040;-66
2022/02/02 06:59:06;;;;;;;26.60;3.58;;;;;;;;;;5045452;28;21929;-69
2022/02/02 07:01:50;;;;;;;35.05;3.83;;;;;;;;;;5043336;28;20635;-66
2022/02/02 07:04:44;;;;;;;28.05;2.50;;;;;;;;;;5041341;28;20024;-72
2022/02/02 07:07:26;;;;;;;11.90;2.10;;;;;;;;;;5042205;28;20047;-67
2022/02/02 07:12:32;;;;;;;42.70;4.20;;;;;;;;;;5041410;28;20709;-66
2022/02/02 07:27:51;;;;;;;28.35;3.83;;;;;;;;;;5036407;28;20017;-72
2022/02/02 07:30:27;;;;;;;32.05;4.55;;;;;;;;;;5029998;28;20055;-68
2022/02/02 07:33:07;;;;;;;25.65;3.28;;;;;;;;;;5024220;28;20032;-66
2022/02/02 07:35:47;;;;;;;42.60;4.45;;;;;;;;;;5045450;28;20167;-68
2022/02/02 07:38:15;;;;;;;19.10;3.30;;;;;;;;;;5042040;28;20043;-67
2022/02/02 07:40:44;;;;;;;30.42;3.53;;;;;;;;;;5043498;28;20609;-66
2022/02/02 07:43:18;;;;;;;46.90;6.35;;;;;;;;;;5042363;28;20052;-66
2022/02/02 07:45:46;;;;;;;23.25;3.47;;;;;;;;;;5043221;28;20116;-69
2022/02/02 07:48:14;;;;;;;29.02;3.67;;;;;;;;;;5042515;28;20081;-69
2022/02/02 07:50:39;;;;;;;19.95;2.85;;;;;;;;;;5060733;28;20084;-66
2022/02/02 07:53:12;;;;;;;37.28;3.92;;;;;;;;;;5025573;28;20530;-70
2022/02/02 07:55:41;;;;;;;28.02;3.50;;;;;;;;;;5039539;28;20142;-65
2022/02/02 07:58:07;;;;;;;45.45;4.30;;;;;;;;;;5041766;28;21582;-67
2022/02/02 08:00:35;;;;;;;18.30;2.75;;;;;;;;;;5038856;28;20049;-71
2022/02/02 08:05:27;;;;;;;27.73;3.50;;;;;;;;;;5027270;28;20032;-68
2022/02/02 08:08:11;;;;;;;28.02;2.97;;;;;;;;;;5057502;28;20024;-66
2022/02/02 08:10:43;;;;;;;24.42;3.33;;;;;;;;;;5015510;28;20055;-64
2022/02/02 08:13:23;;;;;;;28.13;3.50;;;;;;;;;;5026507;28;20112;-68
2022/02/02 08:15:58;;;;;;;28.33;3.85;;;;;;;;;;5026138;28;20512;-67
2022/02/02 08:18:26;;;;;;;40.28;3.47;;;;;;;;;;5041711;28;20079;-67
2022/02/02 08:20:51;;;;;;;37.17;3.75;;;;;;;;;;5041064;28;20513;-68
2022/02/02 08:23:19;;;;;;;27.73;2.72;;;;;;;;;;5028200;28;20356;-66
2022/02/02 08:25:49;;;;;;;29.45;3.80;;;;;;;;;;5039423;28;20051;-68
2022/02/02 08:28:22;;;;;;;39.13;4.03;;;;;;;;;;5038009;28;20032;-68
2022/02/02 08:30:49;;;;;;;51.05;5.60;;;;;;;;;;5043247;28;20037;-69
2022/02/02 08:33:26;;;;;;;33.45;3.47;;;;;;;;;;5044775;28;20063;-66
2022/02/02 08:35:54;;;;;;;26.52;5.00;;;;;;;;;;5042527;28;20495;-66
2022/02/02 08:40:55;;;;;;;34.70;3.65;;;;;;;;;;5039379;28;20032;-65
2022/02/02 08:43:39;;;;;;;36.50;4.28;;;;;;;;;;5026848;28;20212;-66
2022/02/02 08:46:12;;;;;;;42.20;4.53;;;;;;;;;;5040441;28;20047;-67
2022/02/02 08:48:41;;;;;;;21.65;3.30;;;;;;;;;;5037665;28;20052;-69
2022/02/02 08:51:13;;;;;;;27.30;3.88;;;;;;;;;;5042224;28;20431;-65
2022/02/02 08:59:22;;;;;;;20.60;3.53;;;;;;;;;;5039022;28;20064;-67
2022/02/02 09:01:50;;;;;;;35.63;3.30;;;;;;;;;;5025422;28;20060;-68
2022/02/02 09:07:08;;;;;;;36.05;3.63;;;;;;;;;;5040016;28;20074;-67
2022/02/02 09:09:52;;;;;;;26.15;3.47;;;;;;;;;;5039349;28;20028;-67
2022/02/02 09:20:05;;;;;;;25.10;4.10;;;;;;;;;;5043373;28;20124;-67
2022/02/02 09:23:30;;;;;;;31.60;4.10;;;;;;;;;;5026505;28;20017;-68
2022/02/02 09:36:24;;;;;;;27.50;4.10;;;;;;;;;;5042725;28;20697;-68
2022/02/02 09:38:54;;;;;;;19.23;2.88;;;;;;;;;;5027009;28;20032;-63
2022/02/02 09:44:01;;;;;;;33.15;3.70;;;;;;;;;;5041219;28;20041;-70
2022/02/02 09:46:35;;;;;;;19.90;2.88;;;;;;;;;;5026484;28;20036;-65
2022/02/02 09:49:13;;;;;;;18.75;2.92;;;;;;;;;;5041004;28;20028;-64
2022/02/02 09:51:45;;;;;;;;;;;;;;;;;;5040655;28;20736;-64
2022/02/02 09:54:19;;;;;;;18.70;2.28;;;;;;;;;;5042008;28;19916;-65
2022/02/02 10:15:46;;;;;;;11.23;1.75;;;;;;;;;;5046631;28;20037;-64
2022/02/02 10:18:25;;;;;;;9.27;1.85;;;;;;;;;;5047550;28;20143;-66
2022/02/02 10:20:55;;;;;;;15.45;1.95;;;;;;;;;;5043232;28;20037;-71
2022/02/02 10:23:33;;;;;;;12.85;2.40;;;;;;;;;;5045743;28;20115;-65
2022/02/02 10:26:15;;;;;;;11.70;2.38;;;;;;;;;;5039593;28;20387;-64
2022/02/02 10:28:44;;;;;;;21.17;2.35;;;;;;;;;;5061165;28;20118;-66
2022/02/02 10:31:12;;;;;;;11.90;2.00;;;;;;;;;;5045345;28;20037;-65
2022/02/02 10:33:39;;;;;;;13.63;2.10;;;;;;;;;;5043191;28;20151;-65
2022/02/02 10:36:20;;;;;;;17.65;2.08;;;;;;;;;;5027951;28;20072;-65
2022/02/02 10:39:08;;;;;;;11.60;1.92;;;;;;;;;;5030646;28;20161;-67
2022/02/02 10:41:46;;;;;;;14.02;2.08;;;;;;;;;;5043313;28;20037;-65
2022/02/02 10:44:23;;;;;;;16.10;2.00;;;;;;;;;;5046891;28;20025;-65
2022/02/02 10:47:03;;;;;;;18.17;2.67;;;;;;;;;;5045807;28;20032;-65
2022/02/02 10:52:09;;;;;;;16.23;3.08;;;;;;;;;;5043266;28;20029;-64
2022/02/02 11:07:22;;;;;;;21.45;2.47;;;;;;;;;;5041195;28;20032;-65
2022/02/02 11:09:48;;;;;;;14.57;2.50;;;;;;;;;;5040983;28;20013;-63
2022/02/02 11:12:22;;;;;;;25.58;2.85;;;;;;;;;;5041482;28;20134;-67
2022/02/02 11:14:55;;;;;;;19.92;2.28;;;;;;;;;;5044031;28;20653;-65
2022/02/02 11:17:23;;;;;;;22.00;2.45;;;;;;;;;;5043916;28;20032;-67
2022/02/02 11:19:52;;;;;;;16.63;2.15;;;;;;;;;;5061511;28;20029;-65
2022/02/02 11:22:19;;;;;;;13.75;2.40;;;;;;;;;;5043216;28;20036;-66
2022/02/02 11:24:44;;;;;;;20.98;2.50;;;;;;;;;;5059347;28;20081;-70
2022/02/02 11:27:32;;;;;;;21.40;2.67;;;;;;;;;;5041612;28;20032;-64
2022/02/02 11:30:05;;;;;;;;;;;;;;;;;;5044590;28;20060;-69
2022/02/02 11:32:44;;;;;;;17.33;2.05;;;;;;;;;;5041151;28;19918;-66
2022/02/02 11:35:25;;;;;;;19.27;2.60;;;;;;;;;;5059728;28;20021;-67
2022/02/02 11:38:04;;;;;;;21.67;2.58;;;;;;;;;;5042313;28;20112;-72
2022/02/02 11:40:40;;;;;;;16.60;2.08;;;;;;;;;;5046003;28;20059;-65
2022/02/02 11:43:16;;;;;;;12.43;2.08;;;;;;;;;;5044400;28;20033;-65
2022/02/02 11:45:45;;;;;;;21.85;2.55;;;;;;;;;;5030375;28;20041;-65
2022/02/02 11:48:18;;;;;;;23.48;2.47;;;;;;;;;;5027774;28;20017;-67
2022/02/02 11:50:53;;;;;;;15.27;2.05;;;;;;;;;;5008332;28;20470;-65
2022/02/02 11:53:18;;;;;;;;;;;;;;;;;;5041077;28;20031;-68
2022/02/02 11:55:53;;;;;;;24.40;3.22;;;;;;;;;;5036849;28;19920;-64
2022/02/02 11:58:31;;;;;;;13.38;2.72;;;;;;;;;;5041456;28;20037;-65
2022/02/02 12:01:08;;;;;;;20.63;2.00;;;;;;;;;;5030183;28;20056;-67
2022/02/02 12:03:46;;;;;;;12.25;1.92;;;;;;;;;;5040861;28;20663;-75
2022/02/02 12:06:26;;;;;;;14.68;2.53;;;;;;;;;;5043068;28;20044;-71
2022/02/02 12:09:07;;;;;;;12.70;2.30;;;;;;;;;;5043722;28;20039;-73
2022/02/02 13:00:20;;;;;;;20.35;2.08;;;;;;;;;;5040880;28;20067;-68
2022/02/02 13:02:45;;;;;;;5.72;1.15;;;;;;;;;;5038672;28;20066;-68
2022/02/02 13:05:11;;;;;;;15.02;2.22;;;;;;;;;;5023304;28;20117;-68
2022/02/02 13:07:42;;;;;;;14.55;1.83;;;;;;;;;;5043986;28;20028;-68
2022/02/02 13:10:12;;;;;;;8.32;1.40;;;;;;;;;;5043334;28;20021;-69
2022/02/02 13:12:52;;;;;;;10.82;1.40;;;;;;;;;;5040930;28;20097;-69
2022/02/02 13:23:34;;;;;;;7.68;1.42;;;;;;;;;;5030113;28;20188;-69
2022/02/02 13:26:03;;;;;;;9.98;1.50;;;;;;;;;;5039601;28;20621;-68
2022/02/02 13:28:35;;;;;;;10.48;1.83;;;;;;;;;;5041224;28;20154;-68
2022/02/02 13:31:00;;;;;;;7.43;1.45;;;;;;;;;;5043877;28;20048;-75
2022/02/02 13:33:34;;;;;;;8.18;1.50;;;;;;;;;;5042401;28;20028;-69
2022/02/02 13:39:13;;;;;;;11.45;1.27;;;;;;;;;;5042354;28;20155;-68
2022/02/02 13:47:40;;;;;;;12.40;1.60;;;;;;;;;;5042411;28;20327;-70
2022/02/02 13:51:29;;;;;;;10.27;1.60;;;;;;;;;;5044658;28;20056;-68
2022/02/02 13:58:44;;;;;;;10.70;1.50;;;;;;;;;;5043216;28;20036;-68
2022/02/02 14:31:23;;;;;;;9.02;1.23;;;;;;;;;;5047256;28;20064;-68
2022/02/02 14:33:52;;;;;;;19.70;1.90;;;;;;;;;;5041333;28;20380;-69
2022/02/02 14:36:21;;;;;;;11.48;1.60;;;;;;;;;;5043876;28;20105;-68
2022/02/02 14:38:53;;;;;;;10.75;1.02;;;;;;;;;;5046684;28;20136;-67
2022/02/02 14:44:37;;;;;;;12.68;1.45;;;;;;;;;;5044866;28;20499;-70
2022/02/02 14:47:13;;;;;;;17.73;1.90;;;;;;;;;;5043107;28;20089;-68
2022/02/02 14:49:54;;;;;;;8.60;1.23;;;;;;;;;;5046917;28;20064;-68
2022/02/02 15:30:12;;;;;;;7.05;1.10;;;;;;;;;;5042253;28;20032;-68
2022/02/02 15:32:46;;;;;;;12.73;1.73;;;;;;;;;;5044757;28;20033;-68
2022/02/02 15:35:17;;;;;;;16.15;1.75;;;;;;;;;;5029578;28;20032;-68
2022/02/02 15:38:00;;;;;;;17.52;1.95;;;;;;;;;;5041941;28;20036;-68
2022/02/02 15:40:40;;;;;;;11.02;1.83;;;;;;;;;;5039615;28;20070;-67
2022/02/02 15:59:15;;;;;;;17.85;2.05;;;;;;;;;;5040475;28;20055;-68
2022/02/02 16:04:16;;;;;;;10.25;1.40;;;;;;;;;;5061307;28;20032;-67
2022/02/02 16:06:41;;;;;;;14.55;1.80;;;;;;;;;;5013130;28;20094;-68
2022/02/02 16:09:35;;;;;;;8.80;1.25;;;;;;;;;;5027197;28;20130;-68
2022/02/02 16:12:32;;;;;;;13.10;1.65;;;;;;;;;;5022516;28;20132;-68
2022/02/02 16:15:16;;;;;;;14.02;1.45;;;;;;;;;;5003192;28;20056;-67
2022/02/02 16:18:04;;;;;;;15.07;1.48;;;;;;;;;;5023664;28;20048;-68
2022/02/02 16:37:07;;;;;;;5.28;1.15;;;;;;;;;;5017599;28;20749;-67
2022/02/02 16:39:39;;;;;;;6.63;0.82;;;;;;;;;;5033171;28;20055;-67
2022/02/02 16:44:53;;;;;;;9.32;1.48;;;;;;;;;;5042018;28;20041;-67
2022/02/02 16:47:23;;;;;;;9.32;1.45;;;;;;;;;;5040145;28;20042;-67
2022/02/02 16:49:48;;;;;;;13.32;1.40;;;;;;;;;;5024450;28;20089;-68
2022/02/02 16:52:21;;;;;;;10.43;1.52;;;;;;;;;;5024805;28;20040;-66
2022/02/02 16:54:49;;;;;;;4.30;1.23;;;;;;;;;;5040519;28;20047;-67
2022/02/02 17:40:11;;;;;;;13.32;2.28;;;;;;;;;;5045461;28;20040;-67
2022/02/02 18:20:45;;;;;;;23.65;3.33;;;;;;;;;;5022013;28;20078;-67
2022/02/02 18:25:47;;;;;;;20.88;2.95;;;;;;;;;;5045472;28;20067;-67
2022/02/02 18:28:35;;;;;;;10.05;2.33;;;;;;;;;;5024112;28;20040;-68
2022/02/02 18:36:26;;;;;;;27.02;3.95;;;;;;;;;;5039754;28;20093;-68
2022/02/02 19:02:09;;;;;;;32.03;4.07;;;;;;;;;;5029538;28;20048;-66
2022/02/02 19:31:04;;;;;;;11.65;2.70;;;;;;;;;;5042466;28;21939;-68
2022/02/02 19:38:27;;;;;;;22.48;3.63;;;;;;;;;;5046004;28;20033;-68
2022/02/02 20:09:57;;;;;;;19.50;3.17;;;;;;;;;;5038972;28;21569;-67
2022/02/02 20:12:30;;;;;;;17.98;3.17;;;;;;;;;;5025931;28;20540;-67
2022/02/02 20:14:56;;;;;;;21.08;3.45;;;;;;;;;;5039004;28;20036;-67
2022/02/02 20:17:25;;;;;;;21.77;3.22;;;;;;;;;;5042998;28;20039;-67
2022/02/02 20:19:55;;;;;;;19.40;3.72;;;;;;;;;;5038230;28;20394;-66
2022/02/02 20:22:25;;;;;;;24.13;3.83;;;;;;;;;;5041095;28;20056;-66
2022/02/02 20:24:58;;;;;;;19.23;4.28;;;;;;;;;;5058501;28;20135;-66
2022/02/02 20:27:27;;;;;;;17.17;3.03;;;;;;;;;;5038314;28;20037;-66
2022/02/02 20:29:55;;;;;;;20.85;4.05;;;;;;;;;;5043116;28;20475;-67
2022/02/02 20:32:20;;;;;;;15.27;3.28;;;;;;;;;;5043870;28;20087;-67
2022/02/02 20:34:46;;;;;;;21.50;4.32;;;;;;;;;;5040842;28;20077;-67
2022/02/02 20:37:15;;;;;;;15.43;2.92;;;;;;;;;;5042937;28;20613;-67
2022/02/02 20:39:50;;;;;;;17.73;3.85;;;;;;;;;;5043080;28;20029;-66
2022/02/02 20:42:19;;;;;;;11.27;2.65;;;;;;;;;;5026993;28;20028;-67
2022/02/02 20:44:58;;;;;;;21.67;3.70;;;;;;;;;;5039485;28;20029;-67
2022/02/02 21:04:44;;;;;;;21.00;3.70;;;;;;;;;;5029100;28;20132;-68
2022/02/02 21:10:07;;;;;;;17.23;3.40;;;;;;;;;;5038095;28;20029;-67
2022/02/02 21:15:27;;;;;;;11.23;2.95;;;;;;;;;;5041445;28;20532;-66
2022/02/02 21:17:58;;;;;;;27.48;4.03;;;;;;;;;;5042600;28;20040;-67
2022/02/02 21:20:39;;;;;;;20.33;4.57;;;;;;;;;;5041871;28;20067;-66
2022/02/02 21:23:27;;;;;;;22.67;4.72;;;;;;;;;;5040028;28;20029;-66
2022/02/02 21:28:29;;;;;;;;;;;;;;;;;;5043078;28;20024;-65
2022/02/02 21:30:59;;;;;;;30.92;4.95;;;;;;;;;;5023642;28;19917;-67
2022/02/02 21:33:27;;;;;;;35.50;4.82;;;;;;;;;;5025561;28;20341;-67
2022/02/02 21:35:58;;;;;;;23.65;5.68;;;;;;;;;;5025700;28;20029;-65
2022/02/02 21:40:57;;;;;;;19.73;6.07;;;;;;;;;;5041498;28;20086;-66
2022/02/02 21:43:24;;;;;;;16.77;5.38;;;;;;;;;;5020302;28;20383;-66
2022/02/02 21:45:50;;;;;;;29.80;7.13;;;;;;;;;;5040692;28;20028;-66
2022/02/02 21:48:18;;;;;;;25.35;7.65;;;;;;;;;;5044173;28;20111;-66
2022/02/02 21:53:13;;;;;;;27.58;7.38;;;;;;;;;;5042428;28;20078;-66
2022/02/02 21:55:38;;;;;;;29.55;6.78;;;;;;;;;;5056353;28;20037;-66
2022/02/02 21:58:04;;;;;;;30.27;7.68;;;;;;;;;;5043215;28;20029;-66
2022/02/02 22:00:32;;;;;;;24.60;7.50;;;;;;;;;;5039849;28;20266;-66
2022/02/02 22:02:58;;;;;;;31.90;7.57;;;;;;;;;;5041406;28;20836;-65
2022/02/02 22:05:26;;;;;;;30.67;8.00;;;;;;;;;;5046996;28;20036;-66
2022/02/02 22:07:51;;;;;;;32.35;8.18;;;;;;;;;;5045233;28;20032;-66
2022/02/02 22:10:20;;;;;;;31.30;9.38;;;;;;;;;;5027425;28;20048;-65
2022/02/02 22:12:45;;;;;;;26.30;8.35;;;;;;;;;;5046568;28;20045;-66
2022/02/02 22:15:16;;;;;;;36.28;8.52;;;;;;;;;;5026738;28;20052;-66
2022/02/02 22:17:45;;;;;;;29.00;7.88;;;;;;;;;;5030558;28;20371;-65
2022/02/02 22:20:13;;;;;;;23.92;8.00;;;;;;;;;;5045780;28;20036;-66
2022/02/02 22:22:42;;;;;;;33.70;8.68;;;;;;;;;;5044121;28;20063;-64
2022/02/02 22:25:11;;;;;;;31.35;8.23;;;;;;;;;;5045477;28;21996;-64
2022/02/02 22:27:38;;;;;;;40.55;9.38;;;;;;;;;;5061673;28;20119;-64
2022/02/02 22:30:11;;;;;;;29.83;8.85;;;;;;;;;;5041232;28;20917;-63
2022/02/02 22:32:39;;;;;;;35.45;9.80;;;;;;;;;;5029483;28;20040;-63
2022/02/02 22:35:14;;;;;;;32.80;8.68;;;;;;;;;;5045017;28;20134;-63
2022/02/02 22:37:42;;;;;;;28.77;8.60;;;;;;;;;;5027092;28;20238;-66
2022/02/02 22:40:14;;;;;;;27.58;8.77;;;;;;;;;;5042838;28;20036;-63
2022/02/02 22:42:44;;;;;;;29.42;9.43;;;;;;;;;;5045813;28;20033;-64
2022/02/02 22:45:13;;;;;;;31.92;9.38;;;;;;;;;;5042369;28;20032;-64
2022/02/02 22:47:44;;;;;;;24.88;8.45;;;;;;;;;;5013529;28;20059;-64
2022/02/02 22:50:12;;;;;;;27.52;8.55;;;;;;;;;;5059062;28;20032;-62
2022/02/02 22:52:41;;;;;;;37.97;10.18;;;;;;;;;;5044536;28;20113;-64
2022/02/02 22:55:14;;;;;;;28.85;9.18;;;;;;;;;;5043587;28;21393;-64
2022/02/02 22:57:39;;;;;;;30.52;9.35;;;;;;;;;;5042798;28;20537;-64
2022/02/02 23:00:14;;;;;;;35.05;8.90;;;;;;;;;;5044045;28;20459;-63
2022/02/02 23:02:55;;;;;;;30.90;8.13;;;;;;;;;;5042217;28;20052;-64
2022/02/02 23:05:24;;;;;;;25.27;7.78;;;;;;;;;;5061675;28;20056;-64
2022/02/02 23:07:52;;;;;;;33.08;8.77;;;;;;;;;;5043640;28;20841;-64
2022/02/02 23:10:20;;;;;;;22.08;8.93;;;;;;;;;;5044929;28;21087;-64
2022/02/02 23:12:50;;;;;;;25.15;9.07;;;;;;;;;;5045421;28;20024;-64
2022/02/02 23:15:24;;;;;;;21.67;7.85;;;;;;;;;;5060366;28;20048;-64
2022/02/02 23:17:52;;;;;;;25.85;7.50;;;;;;;;;;5042827;28;20778;-65
2022/02/02 23:20:19;;;;;;;17.13;7.20;;;;;;;;;;5044071;28;20060;-64
2022/02/02 23:22:46;;;;;;;23.08;7.38;;;;;;;;;;5026097;28;21943;-64
2022/02/02 23:25:14;;;;;;;22.45;6.82;;;;;;;;;;5043270;28;20162;-63
2022/02/02 23:27:43;;;;;;;24.25;8.40;;;;;;;;;;5028227;28;20028;-63
2022/02/02 23:30:12;;;;;;;20.20;7.85;;;;;;;;;;5042193;28;20028;-64
2022/02/02 23:32:42;;;;;;;19.35;7.15;;;;;;;;;;5043733;28;20037;-64
2022/02/02 23:35:11;;;;;;;15.27;7.07;;;;;;;;;;5024352;28;20033;-64
2022/02/02 23:37:39;;;;;;;19.90;6.63;;;;;;;;;;5025977;28;20131;-63
2022/02/02 23:40:12;;;;;;;17.85;6.60;;;;;;;;;;5045776;28;20033;-63
2022/02/02 23:42:38;;;;;;;23.23;7.90;;;;;;;;;;5044077;28;20464;-63
2022/02/02 23:45:07;;;;;;;19.85;7.55;;;;;;;;;;5028075;28;20116;-63
2022/02/02 23:47:41;;;;;;;24.95;7.15;;;;;;;;;;5060557;28;20024;-64
2022/02/02 23:50:11;;;;;;;22.77;8.70;;;;;;;;;;5044215;28;20024;-64
2022/02/02 23:52:48;;;;;;;17.38;7.00;;;;;;;;;;5044257;28;20831;-64
2022/02/02 23:55:22;;;;;;;20.98;7.90;;;;;;;;;;5045269;28;21602;-64
2022/02/02 23:57:57;;;;;;;24.40;8.32;;;;;;;;;;5041432;28;20151;-63
